sensor_id;sensor_type;location;lat;lon;timestamp;temperature;humidity
30889;DHT22;51092;50.874;7.024;2022-09-30T00:00:04;8.40;99.90
30889;DHT22;51092;50.874;7.024;2022-09-30T00:01:07;8.40;99.90
30889;DHT22;51092;50.874;7.024;2022-09-30T00:02:09;8.40;99.90
30889;DHT22;51092;50.874;7.024;2022-09-30T00:03:12;8.40;99.90
30889;DHT22;51092;50.874;7.024;2022-09-30T00:04:16;8.40;99.90
30889;DHT22;51092;50.874;7.024;2022-09-30T00:05:17;8.40;99.90
30889;DHT22;51092;50.874;7.024;2022-09-30T00:06:22;8.40;99.90
30889;DHT22;51092;50.874;7.024;2022-09-30T00:07:24;8.40;99.90
30889;DHT22;51092;50.874;7.024;2022-09-30T00:08:26;8.40;99.90
30889;DHT22;51092;50.874;7.024;2022-09-30T00:09:28;8.40;99.90
30889;DHT22;51092;50.874;7.024;2022-09-30T00:10:30;8.40;99.90
30889;DHT22;51092;50.874;7.024;2022-09-30T00:11:34;8.40;99.90
30889;DHT22;51092;50.874;7.024;2022-09-30T00:12:35;8.40;99.90
30889;DHT22;51092;50.874;7.024;2022-09-30T00:13:39;8.40;99.90
30889;DHT22;51092;50.874;7.024;2022-09-30T00:14:41;8.40;99.90
30889;DHT22;51092;50.874;7.024;2022-09-30T00:15:45;8.30;99.90
30889;DHT22;51092;50.874;7.024;2022-09-30T00:16:47;8.30;99.90
30889;DHT22;51092;50.874;7.024;2022-09-30T00:17:49;8.30;99.90
30889;DHT22;51092;50.874;7.024;2022-09-30T00:18:53;8.40;99.90
30889;DHT22;51092;50.874;7.024;2022-09-30T00:19:56;8.40;99.90
30889;DHT22;51092;50.874;7.024;2022-09-30T00:20:57;8.40;99.90
30889;DHT22;51092;50.874;7.024;2022-09-30T00:22:02;8.30;99.90
30889;DHT22;51092;50.874;7.024;2022-09-30T00:23:03;8.40;99.90
30889;DHT22;51092;50.874;7.024;2022-09-30T00:24:06;8.30;99.90
30889;DHT22;51092;50.874;7.024;2022-09-30T00:25:07;8.30;99.90
30889;DHT22;51092;50.874;7.024;2022-09-30T00:26:12;8.30;99.90
30889;DHT22;51092;50.874;7.024;2022-09-30T00:27:13;8.30;99.90
30889;DHT22;51092;50.874;7.024;2022-09-30T00:28:18;8.30;99.90
30889;DHT22;51092;50.874;7.024;2022-09-30T00:29:19;8.20;99.90
30889;DHT22;51092;50.874;7.024;2022-09-30T00:30:22;8.20;99.90
30889;DHT22;51092;50.874;7.024;2022-09-30T00:31:25;8.20;99.90
30889;DHT22;51092;50.874;7.024;2022-09-30T00:32:28;8.20;99.90
30889;DHT22;51092;50.874;7.024;2022-09-30T00:33:30;8.20;99.90
30889;DHT22;51092;50.874;7.024;2022-09-30T00:34:32;8.10;99.90
30889;DHT22;51092;50.874;7.024;2022-09-30T00:35:33;8.20;99.90
30889;DHT22;51092;50.874;7.024;2022-09-30T00:36:38;8.20;99.90
30889;DHT22;51092;50.874;7.024;2022-09-30T00:37:40;8.10;99.90
30889;DHT22;51092;50.874;7.024;2022-09-30T00:38:43;8.10;99.90
30889;DHT22;51092;50.874;7.024;2022-09-30T00:39:45;8.20;99.90
30889;DHT22;51092;50.874;7.024;2022-09-30T00:40:48;8.10;99.90
30889;DHT22;51092;50.874;7.024;2022-09-30T00:41:51;8.10;99.90
30889;DHT22;51092;50.874;7.024;2022-09-30T00:42:54;8.10;99.90
30889;DHT22;51092;50.874;7.024;2022-09-30T00:43:57;8.00;99.90
30889;DHT22;51092;50.874;7.024;2022-09-30T00:45:04;8.00;99.90
30889;DHT22;51092;50.874;7.024;2022-09-30T00:46:10;8.00;99.90
30889;DHT22;51092;50.874;7.024;2022-09-30T00:47:32;7.90;99.90
30889;DHT22;51092;50.874;7.024;2022-09-30T00:48:37;7.90;99.90
30889;DHT22;51092;50.874;7.024;2022-09-30T00:49:40;7.90;99.90
30889;DHT22;51092;50.874;7.024;2022-09-30T00:50:43;7.90;99.90
30889;DHT22;51092;50.874;7.024;2022-09-30T00:51:52;7.90;99.90
30889;DHT22;51092;50.874;7.024;2022-09-30T00:53:01;8.00;99.90
30889;DHT22;51092;50.874;7.024;2022-09-30T00:54:08;7.90;99.90
30889;DHT22;51092;50.874;7.024;2022-09-30T00:55:22;8.00;99.90
30889;DHT22;51092;50.874;7.024;2022-09-30T00:56:28;8.00;99.90
30889;DHT22;51092;50.874;7.024;2022-09-30T00:57:32;7.90;99.90
30889;DHT22;51092;50.874;7.024;2022-09-30T00:58:36;7.90;99.90
30889;DHT22;51092;50.874;7.024;2022-09-30T00:59:42;7.90;99.90
30889;DHT22;51092;50.874;7.024;2022-09-30T01:00:45;7.90;99.90
30889;DHT22;51092;50.874;7.024;2022-09-30T01:01:48;7.90;99.90
30889;DHT22;51092;50.874;7.024;2022-09-30T01:02:50;7.90;99.90
30889;DHT22;51092;50.874;7.024;2022-09-30T01:03:55;7.90;99.90
30889;DHT22;51092;50.874;7.024;2022-09-30T01:04:58;7.90;99.90
30889;DHT22;51092;50.874;7.024;2022-09-30T01:06:00;7.90;99.90
30889;DHT22;51092;50.874;7.024;2022-09-30T01:07:05;7.90;99.90
30889;DHT22;51092;50.874;7.024;2022-09-30T01:08:08;7.80;99.90
30889;DHT22;51092;50.874;7.024;2022-09-30T01:09:11;7.90;99.90
30889;DHT22;51092;50.874;7.024;2022-09-30T01:10:13;7.80;99.90
30889;DHT22;51092;50.874;7.024;2022-09-30T01:11:16;7.90;99.90
30889;DHT22;51092;50.874;7.024;2022-09-30T01:12:20;7.90;99.90
30889;DHT22;51092;50.874;7.024;2022-09-30T01:13:24;7.90;99.90
30889;DHT22;51092;50.874;7.024;2022-09-30T01:14:27;7.90;99.90
30889;DHT22;51092;50.874;7.024;2022-09-30T01:15:43;7.80;99.90
30889;DHT22;51092;50.874;7.024;2022-09-30T01:16:58;7.80;99.90
30889;DHT22;51092;50.874;7.024;2022-09-30T01:18:11;7.80;99.90
30889;DHT22;51092;50.874;7.024;2022-09-30T01:21:17;7.80;99.90
30889;DHT22;51092;50.874;7.024;2022-09-30T01:22:33;7.70;99.90
30889;DHT22;51092;50.874;7.024;2022-09-30T01:24:18;7.70;99.90
30889;DHT22;51092;50.874;7.024;2022-09-30T01:27:21;7.80;99.90
30889;DHT22;51092;50.874;7.024;2022-09-30T01:30:13;7.60;99.90
30889;DHT22;51092;50.874;7.024;2022-09-30T01:31:33;7.60;99.90
30889;DHT22;51092;50.874;7.024;2022-09-30T01:33:02;7.60;99.90
30889;DHT22;51092;50.874;7.024;2022-09-30T01:34:12;7.60;99.90
30889;DHT22;51092;50.874;7.024;2022-09-30T01:35:19;7.60;99.90
30889;DHT22;51092;50.874;7.024;2022-09-30T01:36:37;7.60;99.90
30889;DHT22;51092;50.874;7.024;2022-09-30T01:37:47;7.60;99.90
30889;DHT22;51092;50.874;7.024;2022-09-30T01:39:03;7.60;99.90
30889;DHT22;51092;50.874;7.024;2022-09-30T01:40:12;7.60;99.90
30889;DHT22;51092;50.874;7.024;2022-09-30T01:41:26;7.60;99.90
30889;DHT22;51092;50.874;7.024;2022-09-30T01:42:36;7.60;99.90
30889;DHT22;51092;50.874;7.024;2022-09-30T01:43:45;7.50;99.90
30889;DHT22;51092;50.874;7.024;2022-09-30T01:44:53;7.50;99.90
30889;DHT22;51092;50.874;7.024;2022-09-30T01:46:02;7.50;99.90
30889;DHT22;51092;50.874;7.024;2022-09-30T01:47:13;7.50;99.90
30889;DHT22;51092;50.874;7.024;2022-09-30T01:48:19;7.50;99.90
30889;DHT22;51092;50.874;7.024;2022-09-30T01:49:29;7.40;99.90
30889;DHT22;51092;50.874;7.024;2022-09-30T01:50:41;7.40;99.90
30889;DHT22;51092;50.874;7.024;2022-09-30T01:51:52;7.40;99.90
30889;DHT22;51092;50.874;7.024;2022-09-30T01:53:00;7.50;99.90
30889;DHT22;51092;50.874;7.024;2022-09-30T01:54:08;7.40;99.90
30889;DHT22;51092;50.874;7.024;2022-09-30T01:55:16;7.40;99.90
30889;DHT22;51092;50.874;7.024;2022-09-30T01:56:23;7.40;99.90
30889;DHT22;51092;50.874;7.024;2022-09-30T01:57:28;7.40;99.90
30889;DHT22;51092;50.874;7.024;2022-09-30T01:58:38;7.30;99.90
30889;DHT22;51092;50.874;7.024;2022-09-30T01:59:45;7.30;99.90
30889;DHT22;51092;50.874;7.024;2022-09-30T02:00:49;7.30;99.90
30889;DHT22;51092;50.874;7.024;2022-09-30T02:01:56;7.30;99.90
30889;DHT22;51092;50.874;7.024;2022-09-30T02:03:04;7.30;99.90
30889;DHT22;51092;50.874;7.024;2022-09-30T02:04:11;7.30;99.90
30889;DHT22;51092;50.874;7.024;2022-09-30T02:05:17;7.30;99.90
30889;DHT22;51092;50.874;7.024;2022-09-30T02:06:21;7.30;99.90
30889;DHT22;51092;50.874;7.024;2022-09-30T02:07:29;7.30;99.90
30889;DHT22;51092;50.874;7.024;2022-09-30T02:08:37;7.30;99.90
30889;DHT22;51092;50.874;7.024;2022-09-30T02:09:44;7.30;99.90
30889;DHT22;51092;50.874;7.024;2022-09-30T02:10:53;7.30;99.90
30889;DHT22;51092;50.874;7.024;2022-09-30T02:11:59;7.30;99.90
30889;DHT22;51092;50.874;7.024;2022-09-30T02:13:08;7.30;99.90
30889;DHT22;51092;50.874;7.024;2022-09-30T02:14:16;7.30;99.90
30889;DHT22;51092;50.874;7.024;2022-09-30T02:15:22;7.30;99.90
30889;DHT22;51092;50.874;7.024;2022-09-30T02:16:30;7.20;99.90
30889;DHT22;51092;50.874;7.024;2022-09-30T02:17:37;7.20;99.90
30889;DHT22;51092;50.874;7.024;2022-09-30T02:18:47;7.20;99.90
30889;DHT22;51092;50.874;7.024;2022-09-30T02:19:56;7.20;99.90
30889;DHT22;51092;50.874;7.024;2022-09-30T02:21:02;7.20;99.90
30889;DHT22;51092;50.874;7.024;2022-09-30T02:22:09;7.20;99.90
30889;DHT22;51092;50.874;7.024;2022-09-30T02:23:15;7.20;99.90
30889;DHT22;51092;50.874;7.024;2022-09-30T02:24:19;7.20;99.90
30889;DHT22;51092;50.874;7.024;2022-09-30T02:25:28;7.20;99.90
30889;DHT22;51092;50.874;7.024;2022-09-30T02:26:35;7.20;99.90
30889;DHT22;51092;50.874;7.024;2022-09-30T02:27:41;7.20;99.90
30889;DHT22;51092;50.874;7.024;2022-09-30T02:28:48;7.20;99.90
30889;DHT22;51092;50.874;7.024;2022-09-30T02:29:56;7.10;99.90
30889;DHT22;51092;50.874;7.024;2022-09-30T02:30:59;7.20;99.90
30889;DHT22;51092;50.874;7.024;2022-09-30T02:32:06;7.20;99.90
30889;DHT22;51092;50.874;7.024;2022-09-30T02:33:11;7.20;99.90
30889;DHT22;51092;50.874;7.024;2022-09-30T02:34:19;7.10;99.90
30889;DHT22;51092;50.874;7.024;2022-09-30T02:35:25;7.20;99.90
30889;DHT22;51092;50.874;7.024;2022-09-30T02:36:32;7.10;99.90
30889;DHT22;51092;50.874;7.024;2022-09-30T02:37:36;7.10;99.90
30889;DHT22;51092;50.874;7.024;2022-09-30T02:38:42;7.10;99.90
30889;DHT22;51092;50.874;7.024;2022-09-30T02:39:48;7.10;99.90
30889;DHT22;51092;50.874;7.024;2022-09-30T02:40:55;7.00;99.90
30889;DHT22;51092;50.874;7.024;2022-09-30T02:42:00;7.00;99.90
30889;DHT22;51092;50.874;7.024;2022-09-30T02:43:08;7.00;99.90
30889;DHT22;51092;50.874;7.024;2022-09-30T02:44:11;7.00;99.90
30889;DHT22;51092;50.874;7.024;2022-09-30T02:45:16;7.00;99.90
30889;DHT22;51092;50.874;7.024;2022-09-30T02:46:26;7.00;99.90
30889;DHT22;51092;50.874;7.024;2022-09-30T02:47:43;7.00;99.90
30889;DHT22;51092;50.874;7.024;2022-09-30T02:48:51;7.00;99.90
30889;DHT22;51092;50.874;7.024;2022-09-30T02:50:01;7.00;99.90
30889;DHT22;51092;50.874;7.024;2022-09-30T02:51:09;7.10;99.90
30889;DHT22;51092;50.874;7.024;2022-09-30T02:52:20;7.00;99.90
30889;DHT22;51092;50.874;7.024;2022-09-30T02:53:26;7.00;99.90
30889;DHT22;51092;50.874;7.024;2022-09-30T02:54:34;6.90;99.90
30889;DHT22;51092;50.874;7.024;2022-09-30T02:55:47;6.90;99.90
30889;DHT22;51092;50.874;7.024;2022-09-30T02:56:59;6.90;99.90
30889;DHT22;51092;50.874;7.024;2022-09-30T02:58:09;7.00;99.90
30889;DHT22;51092;50.874;7.024;2022-09-30T02:59:13;6.90;99.90
30889;DHT22;51092;50.874;7.024;2022-09-30T03:00:15;6.90;99.90
30889;DHT22;51092;50.874;7.024;2022-09-30T03:01:17;6.90;99.90
30889;DHT22;51092;50.874;7.024;2022-09-30T03:02:19;6.90;99.90
30889;DHT22;51092;50.874;7.024;2022-09-30T03:03:26;6.90;99.90
30889;DHT22;51092;50.874;7.024;2022-09-30T03:04:30;6.90;99.90
30889;DHT22;51092;50.874;7.024;2022-09-30T03:05:37;6.90;99.90
30889;DHT22;51092;50.874;7.024;2022-09-30T03:06:38;6.90;99.90
30889;DHT22;51092;50.874;7.024;2022-09-30T03:07:41;6.90;99.90
30889;DHT22;51092;50.874;7.024;2022-09-30T03:08:43;6.80;99.90
30889;DHT22;51092;50.874;7.024;2022-09-30T03:09:46;6.80;99.90
30889;DHT22;51092;50.874;7.024;2022-09-30T03:10:49;6.80;99.90
30889;DHT22;51092;50.874;7.024;2022-09-30T03:11:56;6.80;99.90
30889;DHT22;51092;50.874;7.024;2022-09-30T03:13:18;6.70;99.90
30889;DHT22;51092;50.874;7.024;2022-09-30T03:14:44;6.70;99.90
30889;DHT22;51092;50.874;7.024;2022-09-30T03:16:00;6.70;99.90
30889;DHT22;51092;50.874;7.024;2022-09-30T03:17:24;6.60;99.90
30889;DHT22;51092;50.874;7.024;2022-09-30T03:18:47;6.60;99.90
30889;DHT22;51092;50.874;7.024;2022-09-30T03:20:12;6.60;99.90
30889;DHT22;51092;50.874;7.024;2022-09-30T03:21:33;6.50;99.90
30889;DHT22;51092;50.874;7.024;2022-09-30T03:22:50;6.50;99.90
30889;DHT22;51092;50.874;7.024;2022-09-30T03:24:16;6.50;99.90
30889;DHT22;51092;50.874;7.024;2022-09-30T03:25:29;6.50;99.90
30889;DHT22;51092;50.874;7.024;2022-09-30T03:26:39;6.60;99.90
30889;DHT22;51092;50.874;7.024;2022-09-30T03:27:54;6.50;99.90
30889;DHT22;51092;50.874;7.024;2022-09-30T03:29:09;6.50;99.90
30889;DHT22;51092;50.874;7.024;2022-09-30T03:30:15;6.50;99.90
30889;DHT22;51092;50.874;7.024;2022-09-30T03:31:26;6.50;99.90
30889;DHT22;51092;50.874;7.024;2022-09-30T03:32:41;6.50;99.90
30889;DHT22;51092;50.874;7.024;2022-09-30T03:33:49;6.50;99.90
30889;DHT22;51092;50.874;7.024;2022-09-30T03:35:00;6.50;99.90
30889;DHT22;51092;50.874;7.024;2022-09-30T03:36:08;6.50;99.90
30889;DHT22;51092;50.874;7.024;2022-09-30T03:37:24;6.50;99.90
30889;DHT22;51092;50.874;7.024;2022-09-30T03:38:38;6.50;99.90
30889;DHT22;51092;50.874;7.024;2022-09-30T03:39:50;6.60;99.90
30889;DHT22;51092;50.874;7.024;2022-09-30T03:40:58;6.50;99.90
30889;DHT22;51092;50.874;7.024;2022-09-30T03:42:08;6.60;99.90
30889;DHT22;51092;50.874;7.024;2022-09-30T03:43:18;6.50;99.90
30889;DHT22;51092;50.874;7.024;2022-09-30T03:44:24;6.50;99.90
30889;DHT22;51092;50.874;7.024;2022-09-30T03:45:32;6.50;99.90
30889;DHT22;51092;50.874;7.024;2022-09-30T03:46:37;6.50;99.90
30889;DHT22;51092;50.874;7.024;2022-09-30T03:47:44;6.50;99.90
30889;DHT22;51092;50.874;7.024;2022-09-30T03:48:49;6.50;99.90
30889;DHT22;51092;50.874;7.024;2022-09-30T03:49:56;6.50;99.90
30889;DHT22;51092;50.874;7.024;2022-09-30T03:51:00;6.50;99.90
30889;DHT22;51092;50.874;7.024;2022-09-30T03:52:05;6.50;99.90
30889;DHT22;51092;50.874;7.024;2022-09-30T03:53:10;6.50;99.90
30889;DHT22;51092;50.874;7.024;2022-09-30T03:54:13;6.50;99.90
30889;DHT22;51092;50.874;7.024;2022-09-30T03:55:16;6.60;99.90
30889;DHT22;51092;50.874;7.024;2022-09-30T03:56:24;6.50;99.90
30889;DHT22;51092;50.874;7.024;2022-09-30T03:57:26;6.50;99.90
30889;DHT22;51092;50.874;7.024;2022-09-30T03:58:29;6.50;99.90
30889;DHT22;51092;50.874;7.024;2022-09-30T03:59:31;6.50;99.90
30889;DHT22;51092;50.874;7.024;2022-09-30T04:00:34;6.50;99.90
30889;DHT22;51092;50.874;7.024;2022-09-30T04:01:35;6.50;99.90
30889;DHT22;51092;50.874;7.024;2022-09-30T04:02:37;6.50;99.90
30889;DHT22;51092;50.874;7.024;2022-09-30T04:03:39;6.50;99.90
30889;DHT22;51092;50.874;7.024;2022-09-30T04:04:41;6.50;99.90
30889;DHT22;51092;50.874;7.024;2022-09-30T04:05:43;6.50;99.90
30889;DHT22;51092;50.874;7.024;2022-09-30T04:06:45;6.50;99.90
30889;DHT22;51092;50.874;7.024;2022-09-30T04:07:48;6.50;99.90
30889;DHT22;51092;50.874;7.024;2022-09-30T04:08:51;6.50;99.90
30889;DHT22;51092;50.874;7.024;2022-09-30T04:09:54;6.50;99.90
30889;DHT22;51092;50.874;7.024;2022-09-30T04:10:56;6.50;99.90
30889;DHT22;51092;50.874;7.024;2022-09-30T04:11:59;6.50;99.90
30889;DHT22;51092;50.874;7.024;2022-09-30T04:13:00;6.50;99.90
30889;DHT22;51092;50.874;7.024;2022-09-30T04:14:03;6.50;99.90
30889;DHT22;51092;50.874;7.024;2022-09-30T04:15:06;6.40;99.90
30889;DHT22;51092;50.874;7.024;2022-09-30T04:16:09;6.40;99.90
30889;DHT22;51092;50.874;7.024;2022-09-30T04:17:12;6.40;99.90
30889;DHT22;51092;50.874;7.024;2022-09-30T04:18:14;6.50;99.90
30889;DHT22;51092;50.874;7.024;2022-09-30T04:19:16;6.50;99.90
30889;DHT22;51092;50.874;7.024;2022-09-30T04:20:18;6.50;99.90
30889;DHT22;51092;50.874;7.024;2022-09-30T04:21:20;6.50;99.90
30889;DHT22;51092;50.874;7.024;2022-09-30T04:22:22;6.50;99.90
30889;DHT22;51092;50.874;7.024;2022-09-30T04:23:24;6.50;99.90
30889;DHT22;51092;50.874;7.024;2022-09-30T04:24:28;6.50;99.90
30889;DHT22;51092;50.874;7.024;2022-09-30T04:25:29;6.50;99.90
30889;DHT22;51092;50.874;7.024;2022-09-30T04:26:32;6.40;99.90
30889;DHT22;51092;50.874;7.024;2022-09-30T04:27:33;6.40;99.90
30889;DHT22;51092;50.874;7.024;2022-09-30T04:28:36;6.40;99.90
30889;DHT22;51092;50.874;7.024;2022-09-30T04:29:37;6.50;99.90
30889;DHT22;51092;50.874;7.024;2022-09-30T04:30:40;6.50;99.90
30889;DHT22;51092;50.874;7.024;2022-09-30T04:31:41;6.40;99.90
30889;DHT22;51092;50.874;7.024;2022-09-30T04:32:44;6.40;99.90
30889;DHT22;51092;50.874;7.024;2022-09-30T04:33:46;6.30;99.90
30889;DHT22;51092;50.874;7.024;2022-09-30T04:34:48;6.30;99.90
30889;DHT22;51092;50.874;7.024;2022-09-30T04:35:52;6.40;99.90
30889;DHT22;51092;50.874;7.024;2022-09-30T04:36:54;6.30;99.90
30889;DHT22;51092;50.874;7.024;2022-09-30T04:37:56;6.30;99.90
30889;DHT22;51092;50.874;7.024;2022-09-30T04:38:58;6.30;99.90
30889;DHT22;51092;50.874;7.024;2022-09-30T04:40:01;6.30;99.90
30889;DHT22;51092;50.874;7.024;2022-09-30T04:41:04;6.40;99.90
30889;DHT22;51092;50.874;7.024;2022-09-30T04:42:05;6.30;99.90
30889;DHT22;51092;50.874;7.024;2022-09-30T04:43:07;6.30;99.90
30889;DHT22;51092;50.874;7.024;2022-09-30T04:44:09;6.30;99.90
30889;DHT22;51092;50.874;7.024;2022-09-30T04:45:13;6.30;99.90
30889;DHT22;51092;50.874;7.024;2022-09-30T04:46:15;6.30;99.90
30889;DHT22;51092;50.874;7.024;2022-09-30T04:47:18;6.20;99.90
30889;DHT22;51092;50.874;7.024;2022-09-30T04:48:19;6.20;99.90
30889;DHT22;51092;50.874;7.024;2022-09-30T04:49:23;6.20;99.90
30889;DHT22;51092;50.874;7.024;2022-09-30T04:50:24;6.20;99.90
30889;DHT22;51092;50.874;7.024;2022-09-30T04:51:27;6.30;99.90
30889;DHT22;51092;50.874;7.024;2022-09-30T04:52:30;6.30;99.90
30889;DHT22;51092;50.874;7.024;2022-09-30T04:53:32;6.30;99.90
30889;DHT22;51092;50.874;7.024;2022-09-30T04:54:34;6.30;99.90
30889;DHT22;51092;50.874;7.024;2022-09-30T04:55:38;6.30;99.90
30889;DHT22;51092;50.874;7.024;2022-09-30T04:56:39;6.30;99.90
30889;DHT22;51092;50.874;7.024;2022-09-30T04:57:43;6.20;99.90
30889;DHT22;51092;50.874;7.024;2022-09-30T04:58:44;6.20;99.90
30889;DHT22;51092;50.874;7.024;2022-09-30T04:59:47;6.20;99.90
30889;DHT22;51092;50.874;7.024;2022-09-30T05:00:50;6.20;99.90
30889;DHT22;51092;50.874;7.024;2022-09-30T05:01:52;6.20;99.90
30889;DHT22;51092;50.874;7.024;2022-09-30T05:02:54;6.20;99.90
30889;DHT22;51092;50.874;7.024;2022-09-30T05:03:56;6.30;99.90
30889;DHT22;51092;50.874;7.024;2022-09-30T05:04:58;6.20;99.90
30889;DHT22;51092;50.874;7.024;2022-09-30T05:06:01;6.20;99.90
30889;DHT22;51092;50.874;7.024;2022-09-30T05:07:03;6.30;99.90
30889;DHT22;51092;50.874;7.024;2022-09-30T05:08:09;6.30;99.90
30889;DHT22;51092;50.874;7.024;2022-09-30T05:09:11;6.20;99.90
30889;DHT22;51092;50.874;7.024;2022-09-30T05:10:13;6.20;99.90
30889;DHT22;51092;50.874;7.024;2022-09-30T05:11:19;6.20;99.90
30889;DHT22;51092;50.874;7.024;2022-09-30T05:12:26;6.20;99.90
30889;DHT22;51092;50.874;7.024;2022-09-30T05:13:31;6.10;99.90
30889;DHT22;51092;50.874;7.024;2022-09-30T05:14:33;6.10;99.90
30889;DHT22;51092;50.874;7.024;2022-09-30T05:15:35;6.10;99.90
30889;DHT22;51092;50.874;7.024;2022-09-30T05:16:37;6.10;99.90
30889;DHT22;51092;50.874;7.024;2022-09-30T05:17:39;6.10;99.90
30889;DHT22;51092;50.874;7.024;2022-09-30T05:18:41;6.00;99.90
30889;DHT22;51092;50.874;7.024;2022-09-30T05:19:45;6.10;99.90
30889;DHT22;51092;50.874;7.024;2022-09-30T05:20:48;6.10;99.90
30889;DHT22;51092;50.874;7.024;2022-09-30T05:21:51;6.10;99.90
30889;DHT22;51092;50.874;7.024;2022-09-30T05:22:54;6.00;99.90
30889;DHT22;51092;50.874;7.024;2022-09-30T05:23:56;6.00;99.90
30889;DHT22;51092;50.874;7.024;2022-09-30T05:24:58;6.00;99.90
30889;DHT22;51092;50.874;7.024;2022-09-30T05:26:03;6.00;99.90
30889;DHT22;51092;50.874;7.024;2022-09-30T05:27:06;6.00;99.90
30889;DHT22;51092;50.874;7.024;2022-09-30T05:28:09;6.00;99.90
30889;DHT22;51092;50.874;7.024;2022-09-30T05:29:10;6.00;99.90
30889;DHT22;51092;50.874;7.024;2022-09-30T05:30:13;6.00;99.90
30889;DHT22;51092;50.874;7.024;2022-09-30T05:31:15;6.00;99.90
30889;DHT22;51092;50.874;7.024;2022-09-30T05:32:17;5.90;99.90
30889;DHT22;51092;50.874;7.024;2022-09-30T05:33:21;6.00;99.90
30889;DHT22;51092;50.874;7.024;2022-09-30T05:34:22;5.90;99.90
30889;DHT22;51092;50.874;7.024;2022-09-30T05:35:25;5.90;99.90
30889;DHT22;51092;50.874;7.024;2022-09-30T05:36:26;5.90;99.90
30889;DHT22;51092;50.874;7.024;2022-09-30T05:37:29;6.00;99.90
30889;DHT22;51092;50.874;7.024;2022-09-30T05:38:30;6.00;99.90
30889;DHT22;51092;50.874;7.024;2022-09-30T05:39:33;6.00;99.90
30889;DHT22;51092;50.874;7.024;2022-09-30T05:40:36;6.00;99.90
30889;DHT22;51092;50.874;7.024;2022-09-30T05:41:39;6.00;99.90
30889;DHT22;51092;50.874;7.024;2022-09-30T05:42:42;5.90;99.90
30889;DHT22;51092;50.874;7.024;2022-09-30T05:43:45;5.90;99.90
30889;DHT22;51092;50.874;7.024;2022-09-30T05:44:48;5.90;99.90
30889;DHT22;51092;50.874;7.024;2022-09-30T05:45:53;5.90;99.90
30889;DHT22;51092;50.874;7.024;2022-09-30T05:46:55;5.90;99.90
30889;DHT22;51092;50.874;7.024;2022-09-30T05:47:58;5.90;99.90
30889;DHT22;51092;50.874;7.024;2022-09-30T05:48:59;6.00;99.90
30889;DHT22;51092;50.874;7.024;2022-09-30T05:50:02;5.90;99.90
30889;DHT22;51092;50.874;7.024;2022-09-30T05:51:04;5.90;99.90
30889;DHT22;51092;50.874;7.024;2022-09-30T05:52:07;6.00;99.90
30889;DHT22;51092;50.874;7.024;2022-09-30T05:53:08;6.00;99.90
30889;DHT22;51092;50.874;7.024;2022-09-30T05:54:11;5.90;99.90
30889;DHT22;51092;50.874;7.024;2022-09-30T05:55:13;5.90;99.90
30889;DHT22;51092;50.874;7.024;2022-09-30T05:56:15;5.90;99.90
30889;DHT22;51092;50.874;7.024;2022-09-30T05:57:16;5.90;99.90
30889;DHT22;51092;50.874;7.024;2022-09-30T05:58:20;5.90;99.90
30889;DHT22;51092;50.874;7.024;2022-09-30T05:59:22;6.00;99.90
30889;DHT22;51092;50.874;7.024;2022-09-30T06:00:25;6.00;99.90
30889;DHT22;51092;50.874;7.024;2022-09-30T06:01:26;6.00;99.90
30889;DHT22;51092;50.874;7.024;2022-09-30T06:02:29;6.00;99.90
30889;DHT22;51092;50.874;7.024;2022-09-30T06:03:30;6.00;99.90
30889;DHT22;51092;50.874;7.024;2022-09-30T06:04:33;6.00;99.90
30889;DHT22;51092;50.874;7.024;2022-09-30T06:05:37;6.10;99.90
30889;DHT22;51092;50.874;7.024;2022-09-30T06:06:40;6.10;99.90
30889;DHT22;51092;50.874;7.024;2022-09-30T06:07:42;6.10;99.90
30889;DHT22;51092;50.874;7.024;2022-09-30T06:08:44;6.10;99.90
30889;DHT22;51092;50.874;7.024;2022-09-30T06:09:47;6.10;99.90
30889;DHT22;51092;50.874;7.024;2022-09-30T06:10:48;6.10;99.90
30889;DHT22;51092;50.874;7.024;2022-09-30T06:11:51;6.10;99.90
30889;DHT22;51092;50.874;7.024;2022-09-30T06:13:02;6.00;99.90
30889;DHT22;51092;50.874;7.024;2022-09-30T06:14:04;6.00;99.90
30889;DHT22;51092;50.874;7.024;2022-09-30T06:15:08;6.00;99.90
30889;DHT22;51092;50.874;7.024;2022-09-30T06:16:11;6.10;99.90
30889;DHT22;51092;50.874;7.024;2022-09-30T06:17:13;6.10;99.90
30889;DHT22;51092;50.874;7.024;2022-09-30T06:18:18;6.10;99.90
30889;DHT22;51092;50.874;7.024;2022-09-30T06:19:21;6.20;99.90
30889;DHT22;51092;50.874;7.024;2022-09-30T06:20:23;6.20;99.90
30889;DHT22;51092;50.874;7.024;2022-09-30T06:21:24;6.10;99.90
30889;DHT22;51092;50.874;7.024;2022-09-30T06:22:26;6.10;99.90
30889;DHT22;51092;50.874;7.024;2022-09-30T06:23:27;6.10;99.90
30889;DHT22;51092;50.874;7.024;2022-09-30T06:24:30;6.20;99.90
30889;DHT22;51092;50.874;7.024;2022-09-30T06:25:31;6.20;99.90
30889;DHT22;51092;50.874;7.024;2022-09-30T06:26:34;6.20;99.90
30889;DHT22;51092;50.874;7.024;2022-09-30T06:27:35;6.30;99.90
30889;DHT22;51092;50.874;7.024;2022-09-30T06:28:38;6.40;99.90
30889;DHT22;51092;50.874;7.024;2022-09-30T06:29:42;6.40;99.90
30889;DHT22;51092;50.874;7.024;2022-09-30T06:30:44;6.50;99.90
30889;DHT22;51092;50.874;7.024;2022-09-30T06:31:46;6.50;99.90
30889;DHT22;51092;50.874;7.024;2022-09-30T06:32:49;6.60;99.90
30889;DHT22;51092;50.874;7.024;2022-09-30T06:33:51;6.60;99.90
30889;DHT22;51092;50.874;7.024;2022-09-30T06:34:54;6.70;99.90
30889;DHT22;51092;50.874;7.024;2022-09-30T06:35:56;6.80;99.90
30889;DHT22;51092;50.874;7.024;2022-09-30T06:36:59;6.80;99.90
30889;DHT22;51092;50.874;7.024;2022-09-30T06:38:01;6.80;99.90
30889;DHT22;51092;50.874;7.024;2022-09-30T06:39:03;6.80;99.90
30889;DHT22;51092;50.874;7.024;2022-09-30T06:40:07;6.70;99.90
30889;DHT22;51092;50.874;7.024;2022-09-30T06:41:09;6.60;99.90
30889;DHT22;51092;50.874;7.024;2022-09-30T06:42:11;6.60;99.90
30889;DHT22;51092;50.874;7.024;2022-09-30T06:43:13;6.50;99.90
30889;DHT22;51092;50.874;7.024;2022-09-30T06:44:15;6.60;99.90
30889;DHT22;51092;50.874;7.024;2022-09-30T06:45:18;6.60;99.90
30889;DHT22;51092;50.874;7.024;2022-09-30T06:46:23;6.60;99.90
30889;DHT22;51092;50.874;7.024;2022-09-30T06:47:25;6.50;99.90
30889;DHT22;51092;50.874;7.024;2022-09-30T06:48:28;6.50;99.90
30889;DHT22;51092;50.874;7.024;2022-09-30T06:49:30;6.50;99.90
30889;DHT22;51092;50.874;7.024;2022-09-30T06:50:34;6.50;99.90
30889;DHT22;51092;50.874;7.024;2022-09-30T06:51:36;6.60;99.90
30889;DHT22;51092;50.874;7.024;2022-09-30T06:52:38;6.60;99.90
30889;DHT22;51092;50.874;7.024;2022-09-30T06:53:40;6.60;99.90
30889;DHT22;51092;50.874;7.024;2022-09-30T06:54:43;6.60;99.90
30889;DHT22;51092;50.874;7.024;2022-09-30T06:55:44;6.60;99.90
30889;DHT22;51092;50.874;7.024;2022-09-30T06:56:47;6.60;99.90
30889;DHT22;51092;50.874;7.024;2022-09-30T06:57:49;6.70;99.90
30889;DHT22;51092;50.874;7.024;2022-09-30T06:58:52;6.70;99.90
30889;DHT22;51092;50.874;7.024;2022-09-30T06:59:54;6.80;99.90
30889;DHT22;51092;50.874;7.024;2022-09-30T07:00:59;6.90;99.90
30889;DHT22;51092;50.874;7.024;2022-09-30T07:02:02;6.90;99.90
30889;DHT22;51092;50.874;7.024;2022-09-30T07:03:05;6.90;99.90